createdAt,value
2022-08-09T00:00:32.098Z,18.46
2022-08-09T00:02:35.759Z,18.56
2022-08-09T00:04:37.605Z,18.61
2022-08-09T00:06:40.028Z,18.64
2022-08-09T00:08:47.159Z,18.61
2022-08-09T00:10:51.426Z,18.65
2022-08-09T00:12:53.309Z,18.61
2022-08-09T00:14:56.895Z,18.68
2022-08-09T00:16:58.605Z,18.71
2022-08-09T00:19:01.286Z,18.67
2022-08-09T00:21:08.590Z,18.67
2022-08-09T00:23:57.565Z,18.66
2022-08-09T00:25:33.684Z,18.66
2022-08-09T00:27:36.094Z,18.66
2022-08-09T00:30:10.004Z,18.68
2022-08-09T00:32:01.182Z,18.62
2022-08-09T00:34:04.262Z,18.66
2022-08-09T00:36:06.063Z,18.70
2022-08-09T00:38:09.981Z,18.75
2022-08-09T00:40:17.387Z,18.71
2022-08-09T00:44:15.930Z,18.78
2022-08-09T00:44:46.897Z,18.79
2022-08-09T00:46:57.818Z,18.77
2022-08-09T00:49:06.228Z,18.85
2022-08-09T00:51:11.733Z,18.81
2022-08-09T00:53:14.545Z,18.84
2022-08-09T00:56:03.052Z,18.74
2022-08-09T00:57:40.006Z,18.76
2022-08-09T00:59:46.007Z,18.80
2022-08-09T01:01:51.181Z,18.78
2022-08-09T01:03:59.077Z,18.82
2022-08-09T01:06:17.569Z,18.79
2022-08-09T01:08:27.369Z,18.88
2022-08-09T01:10:37.000Z,18.91
2022-08-09T01:12:45.770Z,18.90
2022-08-09T01:14:52.900Z,18.83
2022-08-09T01:17:01.938Z,18.91
2022-08-09T01:19:16.656Z,18.91
2022-08-09T01:21:24.952Z,18.90
2022-08-09T01:24:02.623Z,18.96
2022-08-09T01:26:14.225Z,18.90
2022-08-09T01:28:18.945Z,18.80
2022-08-09T01:30:28.867Z,18.85
2022-08-09T01:32:45.435Z,18.88
2022-08-09T01:34:49.945Z,18.82
2022-08-09T01:36:56.466Z,18.79
2022-08-09T01:39:01.108Z,18.86
2022-08-09T01:41:07.726Z,18.84
2022-08-09T01:43:10.898Z,18.87
2022-08-09T01:45:15.085Z,18.85
2022-08-09T01:47:18.444Z,18.89
2022-08-09T01:49:24.384Z,18.84
2022-08-09T01:51:28.063Z,18.79
2022-08-09T01:53:41.119Z,18.76
2022-08-09T01:55:44.390Z,18.76
2022-08-09T01:57:52.880Z,18.67
2022-08-09T01:59:59.885Z,18.65
2022-08-09T02:02:03.674Z,18.66
2022-08-09T02:04:08.594Z,18.76
2022-08-09T02:06:13.011Z,18.72
2022-08-09T02:08:38.807Z,18.76
2022-08-09T02:10:51.094Z,18.70
2022-08-09T02:12:55.175Z,18.69
2022-08-09T02:15:00.669Z,18.58
2022-08-09T02:17:29.492Z,18.55
2022-08-09T02:19:38.606Z,18.55
2022-08-09T02:21:44.575Z,18.51
2022-08-09T02:23:54.599Z,18.57
2022-08-09T02:25:59.811Z,18.49
2022-08-09T02:28:07.159Z,18.57
2022-08-09T02:30:12.230Z,18.58
2022-08-09T02:32:21.269Z,18.60
2022-08-09T02:34:40.531Z,18.60
2022-08-09T02:36:54.189Z,18.56
2022-08-09T02:38:58.281Z,18.61
2022-08-09T02:41:10.290Z,18.61
2022-08-09T02:43:13.056Z,18.68
2022-08-09T02:45:17.745Z,18.65
2022-08-09T02:47:23.330Z,18.63
2022-08-09T02:49:27.258Z,18.71
2022-08-09T02:51:44.576Z,18.66
2022-08-09T02:53:59.611Z,18.65
2022-08-09T02:56:06.030Z,18.68
2022-08-09T02:58:36.039Z,18.62
2022-08-09T03:00:31.941Z,18.64
2022-08-09T03:02:36.792Z,18.65
2022-08-09T03:04:40.378Z,18.63
2022-08-09T03:06:44.057Z,18.68
2022-08-09T03:08:49.306Z,18.59
2022-08-09T03:10:52.743Z,18.65
2022-08-09T03:12:55.046Z,18.66
2022-08-09T03:14:57.593Z,18.70
2022-08-09T03:17:02.103Z,18.73
2022-08-09T03:19:14.332Z,18.72
2022-08-09T03:21:36.563Z,18.67
2022-08-09T03:23:41.463Z,18.75
2022-08-09T03:26:05.079Z,18.59
2022-08-09T03:28:11.377Z,18.60
2022-08-09T03:30:14.454Z,18.59
2022-08-09T03:32:36.778Z,18.60
2022-08-09T03:34:40.160Z,18.47
2022-08-09T03:36:43.581Z,18.62
2022-08-09T03:39:00.219Z,18.62
2022-08-09T03:41:02.896Z,18.75
2022-08-09T03:43:05.785Z,18.75
2022-08-09T03:45:08.586Z,18.81
2022-08-09T03:47:10.382Z,18.73
2022-08-09T03:49:16.687Z,18.71
2022-08-09T03:51:57.431Z,18.79
2022-08-09T03:53:44.676Z,18.88
2022-08-09T03:55:48.317Z,18.89
2022-08-09T03:57:57.587Z,18.91
2022-08-09T04:00:09.240Z,18.86
2022-08-09T04:02:10.855Z,18.89
2022-08-09T04:04:14.700Z,18.91
2022-08-09T04:06:17.015Z,18.94
2022-08-09T04:08:20.030Z,18.96
2022-08-09T04:10:30.728Z,18.90
2022-08-09T04:12:44.694Z,18.95
2022-08-09T04:14:59.199Z,18.94
2022-08-09T04:17:03.832Z,18.95
2022-08-09T04:19:05.362Z,18.97
2022-08-09T04:21:12.763Z,18.95
2022-08-09T04:23:16.725Z,18.85
2022-08-09T04:25:20.356Z,18.91
2022-08-09T04:27:23.693Z,18.96
2022-08-09T04:29:25.163Z,19.00
2022-08-09T04:31:37.767Z,18.98
2022-08-09T04:33:52.653Z,18.90
2022-08-09T04:35:58.192Z,18.85
2022-08-09T04:38:00.153Z,18.87
2022-08-09T04:40:07.682Z,18.95
2022-08-09T04:42:11.359Z,18.99
2022-08-09T04:44:17.368Z,19.08
2022-08-09T04:46:36.398Z,19.09
2022-08-09T04:48:40.438Z,18.98
2022-08-09T04:50:59.019Z,18.96
2022-08-09T04:53:00.720Z,18.84
2022-08-09T04:55:02.403Z,18.95
2022-08-09T04:57:09.416Z,18.92
2022-08-09T04:59:15.719Z,18.94
2022-08-09T05:01:18.787Z,18.94
2022-08-09T05:03:40.660Z,18.93
2022-08-09T05:05:52.689Z,19.00
2022-08-09T05:08:04.604Z,19.07
2022-08-09T05:10:07.207Z,19.00
2022-08-09T05:12:09.765Z,19.05
2022-08-09T05:14:15.267Z,19.17
2022-08-09T05:16:18.176Z,19.26
2022-08-09T05:18:50.798Z,19.27
2022-08-09T05:20:41.911Z,19.26
2022-08-09T05:23:54.696Z,19.19
2022-08-09T05:25:08.400Z,19.21
2022-08-09T05:27:10.610Z,19.37
2022-08-09T05:29:21.924Z,19.44
2022-08-09T05:31:44.007Z,19.38
2022-08-09T05:33:45.910Z,19.36
2022-08-09T05:35:50.850Z,19.45
2022-08-09T05:37:52.534Z,19.51
2022-08-09T05:39:54.234Z,19.58
2022-08-09T05:41:56.229Z,19.68
2022-08-09T05:44:03.849Z,19.62
2022-08-09T05:46:08.346Z,19.66
2022-08-09T05:48:12.591Z,19.61
2022-08-09T05:50:25.547Z,19.59
2022-08-09T05:52:38.615Z,19.59
2022-08-09T05:54:40.589Z,19.60
2022-08-09T05:56:54.423Z,19.61
2022-08-09T05:58:58.510Z,19.69
2022-08-09T06:01:00.395Z,19.85
2022-08-09T06:03:10.779Z,19.83
2022-08-09T06:05:12.662Z,19.74
2022-08-09T06:07:21.490Z,19.82
2022-08-09T06:09:54.562Z,19.83
2022-08-09T06:11:57.690Z,19.96
2022-08-09T06:13:59.531Z,20.08
2022-08-09T06:16:01.680Z,20.08
2022-08-09T06:18:07.921Z,20.08
2022-08-09T06:20:12.849Z,20.24
2022-08-09T06:22:23.522Z,20.45
2022-08-09T06:24:30.580Z,20.40
2022-08-09T06:26:33.006Z,20.44
2022-08-09T06:28:34.957Z,20.44
2022-08-09T06:30:38.721Z,20.48
2022-08-09T06:32:59.458Z,20.35
2022-08-09T06:35:06.383Z,20.49
2022-08-09T06:37:10.223Z,20.37
2022-08-09T06:39:11.984Z,20.28
2022-08-09T06:41:18.811Z,20.32
2022-08-09T06:43:21.829Z,20.36
2022-08-09T06:46:06.708Z,20.46
2022-08-09T06:47:45.431Z,20.84
2022-08-09T06:50:14.968Z,21.31
2022-08-09T06:52:10.028Z,21.54
2022-08-09T06:54:14.924Z,21.42
2022-08-09T06:56:16.616Z,21.94
2022-08-09T06:58:40.577Z,22.07
2022-08-09T07:00:51.172Z,22.42
2022-08-09T07:02:59.597Z,22.28
2022-08-09T07:05:02.281Z,22.32
2022-08-09T07:07:04.795Z,22.34
2022-08-09T07:09:08.072Z,22.30
2022-08-09T07:11:34.189Z,22.07
2022-08-09T07:14:04.283Z,22.05
2022-08-09T07:16:42.831Z,22.04
2022-08-09T07:18:29.765Z,21.79
2022-08-09T07:20:33.093Z,22.08
2022-08-09T07:22:47.416Z,21.88
2022-08-09T07:24:55.580Z,21.68
2022-08-09T07:26:57.411Z,21.63
2022-08-09T07:29:08.224Z,21.61
2022-08-09T07:31:10.995Z,21.97
2022-08-09T07:33:16.475Z,22.26
2022-08-09T07:35:18.914Z,22.24
2022-08-09T07:37:20.705Z,22.42
2022-08-09T07:39:40.256Z,22.45
2022-08-09T07:41:44.987Z,22.78
2022-08-09T07:43:50.051Z,22.50
2022-08-09T07:46:02.126Z,22.71
2022-08-09T07:48:05.497Z,22.89
2022-08-09T07:50:09.294Z,22.91
2022-08-09T07:52:17.904Z,22.93
2022-08-09T07:54:28.006Z,22.97
2022-08-09T07:56:32.060Z,23.00
2022-08-09T07:58:35.059Z,22.87
2022-08-09T08:00:36.806Z,22.83
2022-08-09T08:02:57.766Z,22.77
2022-08-09T08:04:59.741Z,22.40
2022-08-09T08:07:27.194Z,22.31
2022-08-09T08:09:35.533Z,22.19
2022-08-09T08:12:24.146Z,22.09
2022-08-09T08:14:07.411Z,22.09
2022-08-09T08:16:29.549Z,22.09
2022-08-09T08:18:31.714Z,22.11
2022-08-09T08:20:33.683Z,22.03
2022-08-09T08:22:35.297Z,22.23
2022-08-09T08:24:40.744Z,22.53
2022-08-09T08:26:56.133Z,22.89
2022-08-09T08:28:58.228Z,23.23
2022-08-09T08:31:10.642Z,23.19
2022-08-09T08:33:23.012Z,23.42
2022-08-09T08:35:28.213Z,22.97
2022-08-09T08:37:41.412Z,22.65
2022-08-09T08:40:00.483Z,22.70
2022-08-09T08:42:02.516Z,22.62
2022-08-09T08:44:04.546Z,22.58
2022-08-09T08:46:33.112Z,22.45
2022-08-09T08:48:34.289Z,22.58
2022-08-09T08:50:37.029Z,22.88
2022-08-09T08:52:59.419Z,23.17
2022-08-09T08:55:03.947Z,23.36
2022-08-09T08:57:11.643Z,23.56
2022-08-09T08:59:19.473Z,23.80
2022-08-09T09:01:25.031Z,24.08
2022-08-09T09:03:38.260Z,24.22
2022-08-09T09:06:03.325Z,24.35
2022-08-09T09:08:03.326Z,24.49
2022-08-09T09:10:09.128Z,24.60
2022-08-09T09:12:16.472Z,24.63
2022-08-09T09:14:23.741Z,24.42
2022-08-09T09:16:30.836Z,24.44
2022-08-09T09:18:33.437Z,24.06
2022-08-09T09:20:35.397Z,24.25
2022-08-09T09:22:57.772Z,24.59
2022-08-09T09:26:01.025Z,24.75
2022-08-09T09:28:06.625Z,24.74
2022-08-09T09:32:15.935Z,24.84
2022-08-09T09:34:18.162Z,24.59
2022-08-09T09:36:21.265Z,24.79
2022-08-09T09:38:38.687Z,24.79
2022-08-09T09:40:46.187Z,24.58
2022-08-09T09:42:56.088Z,24.95
2022-08-09T09:44:58.674Z,25.15
2022-08-09T09:47:07.882Z,25.50
2022-08-09T09:49:18.616Z,25.46
2022-08-09T09:51:38.134Z,25.41
2022-08-09T09:53:57.411Z,25.43
2022-08-09T09:56:05.512Z,25.88
2022-08-09T09:58:16.891Z,25.82
2022-08-09T10:00:22.804Z,25.96
2022-08-09T10:02:28.288Z,26.00
2022-08-09T10:04:31.848Z,26.09
2022-08-09T10:06:43.017Z,26.10
2022-08-09T10:08:57.270Z,25.79
2022-08-09T10:10:59.282Z,25.63
2022-08-09T10:13:01.055Z,25.36
2022-08-09T10:15:10.717Z,25.30
2022-08-09T10:17:39.637Z,25.69
2022-08-09T10:19:43.774Z,25.94
2022-08-09T10:21:48.924Z,26.25
2022-08-09T10:23:52.224Z,26.30
2022-08-09T10:26:07.839Z,26.14
2022-08-09T10:28:12.755Z,26.27
2022-08-09T10:32:42.778Z,26.41
2022-08-09T10:34:46.372Z,26.47
2022-08-09T10:36:48.799Z,26.45
2022-08-09T10:38:56.707Z,26.46
2022-08-09T10:41:01.918Z,26.65
2022-08-09T10:43:05.270Z,26.84
2022-08-09T10:45:16.740Z,26.46
2022-08-09T10:48:16.812Z,26.22
2022-08-09T10:50:21.094Z,26.57
2022-08-09T10:52:46.038Z,26.57
2022-08-09T10:54:47.574Z,26.38
2022-08-09T10:57:07.959Z,26.49
2022-08-09T10:59:31.174Z,26.47
2022-08-09T11:03:16.430Z,26.28
2022-08-09T11:04:28.559Z,26.16
2022-08-09T11:06:35.091Z,26.52
2022-08-09T11:08:47.427Z,26.78
2022-08-09T11:10:56.139Z,26.88
2022-08-09T11:13:13.885Z,27.01
2022-08-09T11:15:38.375Z,27.20
2022-08-09T11:18:03.009Z,27.32
2022-08-09T11:20:10.754Z,27.78
2022-08-09T11:22:59.522Z,27.44
2022-08-09T11:25:04.946Z,27.16
2022-08-09T11:28:04.706Z,27.32
2022-08-09T11:30:05.929Z,27.12
2022-08-09T11:32:45.682Z,26.52
2022-08-09T11:34:51.438Z,26.47
2022-08-09T11:36:55.752Z,26.46
2022-08-09T11:39:04.170Z,26.07
2022-08-09T11:41:26.321Z,26.09
2022-08-09T11:43:42.744Z,25.89
2022-08-09T11:45:54.756Z,25.90
2022-08-09T11:48:06.586Z,26.23
2022-08-09T11:50:53.205Z,26.44
2022-08-09T11:53:59.857Z,25.97
2022-08-09T11:56:02.825Z,26.16
2022-08-09T11:58:32.313Z,26.63
2022-08-09T12:00:34.757Z,26.49
2022-08-09T12:02:40.825Z,26.40
2022-08-09T12:04:43.122Z,27.00
2022-08-09T12:06:55.522Z,27.09
2022-08-09T12:08:57.683Z,27.37
2022-08-09T12:11:04.113Z,27.46
2022-08-09T12:14:09.818Z,27.87
2022-08-09T12:15:52.593Z,28.21
2022-08-09T12:17:54.977Z,28.33
2022-08-09T12:19:59.895Z,27.85
2022-08-09T12:22:03.814Z,27.61
2022-08-09T12:24:09.292Z,26.96
2022-08-09T12:26:25.824Z,26.59
2022-08-09T12:29:09.807Z,26.57
2022-08-09T12:30:50.129Z,26.45
2022-08-09T12:33:01.429Z,26.01
2022-08-09T12:35:05.189Z,26.06
2022-08-09T12:37:23.699Z,26.19
2022-08-09T12:39:30.842Z,26.05
2022-08-09T12:41:40.766Z,26.21
2022-08-09T12:44:05.584Z,26.14
2022-08-09T12:46:04.372Z,26.59
2022-08-09T12:48:20.213Z,27.09
2022-08-09T12:50:31.509Z,27.58
2022-08-09T12:52:42.822Z,27.68
2022-08-09T12:56:11.157Z,27.68
2022-08-09T12:57:38.711Z,27.70
2022-08-09T13:00:03.340Z,27.73
2022-08-09T13:02:04.451Z,27.77
2022-08-09T13:04:16.674Z,27.56
2022-08-09T13:06:34.205Z,27.19
2022-08-09T13:08:40.111Z,27.03
2022-08-09T13:10:52.333Z,27.41
2022-08-09T13:13:08.833Z,27.19
2022-08-09T13:15:12.131Z,27.19
2022-08-09T13:17:16.092Z,26.96
2022-08-09T13:19:25.782Z,27.01
2022-08-09T13:23:00.551Z,27.23
2022-08-09T13:24:44.599Z,27.40
2022-08-09T13:26:36.539Z,27.50
2022-08-09T13:28:40.468Z,27.13
2022-08-09T13:30:50.980Z,27.06
2022-08-09T13:33:04.170Z,26.92
2022-08-09T13:35:06.524Z,26.76
2022-08-09T13:37:13.635Z,26.53
2022-08-09T13:41:19.093Z,26.33
2022-08-09T13:41:59.139Z,26.00
2022-08-09T13:44:05.398Z,26.03
2022-08-09T13:46:42.935Z,26.06
2022-08-09T13:48:30.115Z,26.15
2022-08-09T13:50:31.880Z,26.02
2022-08-09T13:52:33.712Z,26.02
2022-08-09T13:54:35.468Z,25.85
2022-08-09T13:56:43.323Z,26.08
2022-08-09T13:58:48.654Z,26.36
2022-08-09T14:00:53.109Z,26.48
2022-08-09T14:03:03.415Z,26.62
2022-08-09T14:05:58.554Z,26.57
2022-08-09T14:07:42.042Z,26.46
2022-08-09T14:09:43.943Z,26.79
2022-08-09T14:11:47.865Z,26.93
2022-08-09T14:14:22.539Z,27.06
2022-08-09T14:16:14.848Z,27.12
2022-08-09T14:18:20.735Z,27.33
2022-08-09T14:20:31.858Z,27.54
2022-08-09T14:22:34.073Z,27.52
2022-08-09T14:24:35.799Z,27.76
2022-08-09T14:26:41.755Z,27.77
2022-08-09T14:28:46.795Z,27.86
2022-08-09T14:30:48.844Z,28.09
2022-08-09T14:32:52.844Z,28.01
2022-08-09T14:34:56.757Z,28.04
2022-08-09T14:36:58.725Z,28.04
2022-08-09T14:39:00.769Z,28.16
2022-08-09T14:41:34.402Z,28.19
2022-08-09T14:43:27.856Z,28.28
2022-08-09T14:46:55.819Z,28.21
2022-08-09T14:48:12.310Z,28.18
2022-08-09T14:50:17.386Z,28.25
2022-08-09T14:52:19.142Z,28.41
2022-08-09T14:54:22.298Z,28.46
2022-08-09T14:56:26.984Z,28.29
2022-08-09T14:58:28.619Z,28.47
2022-08-09T15:00:31.128Z,28.20
2022-08-09T15:02:32.869Z,28.19
2022-08-09T15:04:36.322Z,27.81
2022-08-09T15:06:37.839Z,27.59
2022-08-09T15:08:39.597Z,27.25
2022-08-09T15:10:43.054Z,27.25
2022-08-09T15:13:04.729Z,27.44
2022-08-09T15:15:08.567Z,27.47
2022-08-09T15:17:10.489Z,27.46
2022-08-09T15:19:18.007Z,27.55
2022-08-09T15:21:56.427Z,27.47
2022-08-09T15:24:00.954Z,27.78
2022-08-09T15:26:04.923Z,27.54
2022-08-09T15:28:26.415Z,27.34
2022-08-09T15:30:57.289Z,27.14
2022-08-09T15:32:51.944Z,26.99
2022-08-09T15:34:54.898Z,26.85
2022-08-09T15:36:59.400Z,26.65
2022-08-09T15:39:01.015Z,26.79
2022-08-09T15:41:09.594Z,26.77
2022-08-09T15:43:13.173Z,26.64
2022-08-09T15:45:21.829Z,26.63
2022-08-09T15:47:52.906Z,26.60
2022-08-09T15:50:03.606Z,26.67
2022-08-09T15:52:07.494Z,26.69
2022-08-09T15:54:20.988Z,26.67
2022-08-09T15:56:31.227Z,26.68
2022-08-09T15:58:32.918Z,26.70
2022-08-09T16:00:34.604Z,26.64
2022-08-09T16:02:36.864Z,26.81
2022-08-09T16:04:38.478Z,26.94
2022-08-09T16:06:40.039Z,26.87
2022-08-09T16:08:49.845Z,27.02
2022-08-09T16:10:56.577Z,26.96
2022-08-09T16:12:58.485Z,26.89
2022-08-09T16:15:01.505Z,26.78
2022-08-09T16:17:03.226Z,26.57
2022-08-09T16:19:05.131Z,26.78
2022-08-09T16:21:06.683Z,26.79
2022-08-09T16:23:08.231Z,26.82
2022-08-09T16:25:14.165Z,26.88
2022-08-09T16:27:17.367Z,26.72
2022-08-09T16:29:20.169Z,26.49
2022-08-09T16:32:11.206Z,26.43
2022-08-09T16:33:43.508Z,26.60
2022-08-09T16:35:55.785Z,26.51
2022-08-09T16:38:00.351Z,26.68
2022-08-09T16:40:04.395Z,26.51
2022-08-09T16:42:08.708Z,26.63
2022-08-09T16:44:16.685Z,26.57
2022-08-09T16:46:18.255Z,26.43
2022-08-09T16:48:42.616Z,26.20
2022-08-09T16:50:59.149Z,26.15
2022-08-09T16:53:01.909Z,25.83
2022-08-09T16:55:04.093Z,25.48
2022-08-09T16:57:11.031Z,25.75
2022-08-09T16:59:12.546Z,25.62
2022-08-09T17:01:14.147Z,25.58
2022-08-09T17:03:22.056Z,25.42
2022-08-09T17:05:24.990Z,25.40
2022-08-09T17:08:47.088Z,25.19
2022-08-09T17:10:10.362Z,25.35
2022-08-09T17:12:14.297Z,25.39
2022-08-09T17:14:25.624Z,25.29
2022-08-09T17:16:30.036Z,25.26
2022-08-09T17:18:39.704Z,25.11
2022-08-09T17:20:52.506Z,25.01
2022-08-09T17:22:54.676Z,24.79
2022-08-09T17:25:03.523Z,24.79
2022-08-09T17:27:15.021Z,24.71
2022-08-09T17:29:20.150Z,24.82
2022-08-09T17:31:22.064Z,24.83
2022-08-09T17:33:24.024Z,24.77
2022-08-09T17:35:25.665Z,24.54
2022-08-09T17:37:27.257Z,24.47
2022-08-09T17:39:52.855Z,24.42
2022-08-09T17:41:53.228Z,24.39
2022-08-09T17:44:42.010Z,24.39
2022-08-09T17:46:17.572Z,24.40
2022-08-09T17:48:19.334Z,24.33
2022-08-09T17:50:36.986Z,24.26
2022-08-09T17:52:39.075Z,24.21
2022-08-09T17:54:40.785Z,24.10
2022-08-09T17:56:43.432Z,24.07
2022-08-09T17:58:46.915Z,24.08
2022-08-09T18:00:49.059Z,24.01
2022-08-09T18:02:58.220Z,23.97
2022-08-09T18:05:00.356Z,23.90
2022-08-09T18:07:04.464Z,23.83
2022-08-09T18:09:07.016Z,23.79
2022-08-09T18:11:08.639Z,23.77
2022-08-09T18:13:53.653Z,23.65
2022-08-09T18:16:04.915Z,23.62
2022-08-09T18:18:07.869Z,23.60
2022-08-09T18:20:56.929Z,23.57
2022-08-09T18:22:34.070Z,23.47
2022-08-09T18:24:35.951Z,23.40
2022-08-09T18:26:38.930Z,23.41
2022-08-09T18:30:41.262Z,23.37
2022-08-09T18:31:10.317Z,23.30
2022-08-09T18:33:13.596Z,23.28
2022-08-09T18:35:17.003Z,23.30
2022-08-09T18:37:48.199Z,23.40
2022-08-09T18:39:41.959Z,23.37
2022-08-09T18:41:52.952Z,23.37
2022-08-09T18:43:55.271Z,23.31
2022-08-09T18:46:50.072Z,23.33
2022-08-09T18:48:20.319Z,23.27
2022-08-09T18:50:22.548Z,23.20
2022-08-09T18:52:34.729Z,23.23
2022-08-09T18:54:37.241Z,23.21
2022-08-09T18:56:38.942Z,23.18
2022-08-09T18:58:42.586Z,23.24
2022-08-09T19:00:50.789Z,23.21
2022-08-09T19:02:54.097Z,23.15
2022-08-09T19:05:04.075Z,23.08
2022-08-09T19:07:16.777Z,23.08
2022-08-09T19:09:34.084Z,23.03
2022-08-09T19:11:40.451Z,23.01
2022-08-09T19:13:51.545Z,23.07
2022-08-09T19:15:55.841Z,22.98
2022-08-09T19:17:59.043Z,22.90
2022-08-09T19:20:02.344Z,22.78
2022-08-09T19:22:06.854Z,22.78
2022-08-09T19:24:37.579Z,22.80
2022-08-09T19:26:34.798Z,22.73
2022-08-09T19:28:37.930Z,22.75
2022-08-09T19:30:40.271Z,22.67
2022-08-09T19:32:46.310Z,22.64
2022-08-09T19:34:54.648Z,22.55
2022-08-09T19:37:00.657Z,22.40
2022-08-09T19:39:03.565Z,22.56
2022-08-09T19:41:07.337Z,22.57
2022-08-09T19:43:10.257Z,22.58
2022-08-09T19:45:18.641Z,22.52
2022-08-09T19:47:23.465Z,22.48
2022-08-09T19:50:07.564Z,22.43
2022-08-09T19:51:55.231Z,22.44
2022-08-09T19:53:59.277Z,22.48
2022-08-09T19:56:02.895Z,22.37
2022-08-09T19:58:16.401Z,22.42
2022-08-09T20:00:18.867Z,22.35
2022-08-09T20:04:09.844Z,22.30
2022-08-09T20:04:53.274Z,22.24
2022-08-09T20:06:57.291Z,22.20
2022-08-09T20:09:00.267Z,22.32
2022-08-09T20:11:04.384Z,22.16
2022-08-09T20:13:06.948Z,22.22
2022-08-09T20:15:14.036Z,22.23
2022-08-09T20:17:48.543Z,21.98
2022-08-09T20:19:53.856Z,21.97
2022-08-09T20:22:00.365Z,21.93
2022-08-09T20:24:03.926Z,21.94
2022-08-09T20:26:06.974Z,21.95
2022-08-09T20:28:08.612Z,21.92
2022-08-09T20:30:14.653Z,21.81
2022-08-09T20:32:30.671Z,21.87
2022-08-09T20:34:35.533Z,21.88
2022-08-09T20:36:39.496Z,21.72
2022-08-09T20:39:29.192Z,21.67
2022-08-09T20:41:06.747Z,21.64
2022-08-09T20:43:19.098Z,21.67
2022-08-09T20:45:58.482Z,21.31
2022-08-09T20:47:48.636Z,21.46
2022-08-09T20:49:50.423Z,21.54
2022-08-09T20:51:52.114Z,21.56
2022-08-09T20:53:55.903Z,21.51
2022-08-09T20:56:00.725Z,21.49
2022-08-09T20:58:07.857Z,21.42
2022-08-09T21:00:31.128Z,21.48
2022-08-09T21:02:34.063Z,21.45
2022-08-09T21:05:51.069Z,21.38
2022-08-09T21:06:57.371Z,21.16
2022-08-09T21:08:58.904Z,21.20
2022-08-09T21:11:00.426Z,21.26
2022-08-09T21:13:12.385Z,21.30
2022-08-09T21:15:17.577Z,21.28
2022-08-09T21:18:20.878Z,21.21
2022-08-09T21:20:18.925Z,21.15
2022-08-09T21:22:37.748Z,21.16
2022-08-09T21:24:33.559Z,21.29
2022-08-09T21:26:35.450Z,21.18
2022-08-09T21:28:38.434Z,21.03
2022-08-09T21:30:40.675Z,20.92
2022-08-09T21:32:42.530Z,20.77
2022-08-09T21:34:49.160Z,20.96
2022-08-09T21:36:55.658Z,20.89
2022-08-09T21:38:59.321Z,20.91
2022-08-09T21:41:01.335Z,20.84
2022-08-09T21:43:04.025Z,20.88
2022-08-09T21:45:10.173Z,20.91
2022-08-09T21:47:19.132Z,20.93
2022-08-09T21:49:20.730Z,20.94
2022-08-09T21:51:25.444Z,20.95
2022-08-09T21:53:40.113Z,20.81
2022-08-09T21:55:46.523Z,20.59
2022-08-09T21:57:59.451Z,20.62
2022-08-09T22:00:01.850Z,20.62
2022-08-09T22:02:04.941Z,20.66
2022-08-09T22:04:06.540Z,20.56
2022-08-09T22:06:08.217Z,20.50
2022-08-09T22:08:13.466Z,20.56
2022-08-09T22:10:22.148Z,20.38
2022-08-09T22:12:30.845Z,20.37
2022-08-09T22:14:33.012Z,20.40
2022-08-09T22:16:37.404Z,20.30
2022-08-09T22:18:44.104Z,20.43
2022-08-09T22:20:55.300Z,20.40
2022-08-09T22:22:57.816Z,20.51
2022-08-09T22:26:08.691Z,20.49
2022-08-09T22:27:21.050Z,20.39
2022-08-09T22:29:28.785Z,20.34
2022-08-09T22:31:36.437Z,20.34
2022-08-09T22:33:49.201Z,20.31
2022-08-09T22:36:00.853Z,20.29
2022-08-09T22:38:07.658Z,20.21
2022-08-09T22:40:20.270Z,20.21
2022-08-09T22:42:23.597Z,20.19
2022-08-09T22:44:25.321Z,20.12
2022-08-09T22:48:11.354Z,20.09
2022-08-09T22:48:55.856Z,20.00
2022-08-09T22:51:10.290Z,19.98
2022-08-09T22:53:12.533Z,19.98
2022-08-09T22:55:21.846Z,19.89
2022-08-09T22:57:24.445Z,19.97
2022-08-09T22:59:55.303Z,19.90
2022-08-09T23:01:58.953Z,19.70
2022-08-09T23:04:04.419Z,19.71
2022-08-09T23:06:10.010Z,19.65
2022-08-09T23:08:22.700Z,19.75
2022-08-09T23:10:31.253Z,19.71
2022-08-09T23:12:32.860Z,19.66
2022-08-09T23:14:37.633Z,19.67
2022-08-09T23:16:44.657Z,19.68
2022-08-09T23:18:46.191Z,19.69
2022-08-09T23:20:47.752Z,19.54
2022-08-09T23:22:50.646Z,19.54
2022-08-09T23:24:52.222Z,19.44
2022-08-09T23:26:53.777Z,19.16
2022-08-09T23:28:55.326Z,19.01
2022-08-09T23:30:56.874Z,18.87
2022-08-09T23:32:58.411Z,18.87
2022-08-09T23:34:59.999Z,19.02
2022-08-09T23:37:01.552Z,19.09
2022-08-09T23:39:05.746Z,19.05
2022-08-09T23:41:07.366Z,19.07
2022-08-09T23:43:09.025Z,19.11
2022-08-09T23:45:11.147Z,19.08
2022-08-09T23:47:32.683Z,19.10
2022-08-09T23:49:34.188Z,19.05
2022-08-09T23:51:35.720Z,18.99
2022-08-09T23:53:38.389Z,18.95
2022-08-09T23:55:46.215Z,18.97
2022-08-09T23:58:07.199Z,18.79
